Terminal Aerodrome Forecast
Issued by NWS Sterling, VA

Home | Current Version | Previous Version | Text Only | Print | Product List | Glossary On
Versions: 1 2 3 4 5 6 7 8 9 10 11 12 13 14 15 16 17 18 19 20 21 22 23 24 25 26 27 28 29 30 31 32 33 34 35
000
FTUS41 KLWX 231744
TAFBWI
TAF
KBWI 231744Z 2318/2424 08005KT P6SM SCT040 BKN200
     FM240900 06005KT P6SM -RA SCT025 OVC045
     FM241200 05007KT P6SM -RA SCT025 OVC030
     FM241500 05010KT P6SM -RA SCT030 OVC035
     FM241800 06011KT 1 1/2SM -RA BKN020 OVC035=

USA.gov is the U.S. government's official web portal to all federal, state and local government web resources and services.